< < Back
Terminal Aerodrome Forecast


Current Version              Previous Versions:   1  2  3  4  5  6  7  8  9  

Terminal Aerodrome Forecast

016
FTUS44 KBMX 202343
TAFMGM
TAF
KMGM 202343Z 2100/2124 26012G20KT P6SM SCT050
     FM210300 30006KT P6SM SKC
     FM210600 28002KT P6SM SKC
     FM211500 34006KT P6SM SKC=

Latest METAR

562
SAUS80 KWBC 210600
MTRMGM
METAR KMGM 210553Z AUTO 30004KT 10SM CLR 14/09 A2995 RMK AO2 SLP139
T01440094 10222 20144 402670144 50009


USA.gov is the U.S. government's official web portal to all federal, state and local government web resources and services.